createdAt,value
2022-07-30T00:00:40.126Z,63.65
2022-07-30T00:03:08.520Z,64.01
2022-07-30T00:05:36.933Z,64.00
2022-07-30T00:08:05.876Z,64.09
2022-07-30T00:10:34.219Z,64.30
2022-07-30T00:13:02.586Z,64.54
2022-07-30T00:15:32.347Z,64.61
2022-07-30T00:18:00.836Z,64.90
2022-07-30T00:20:29.421Z,65.10
2022-07-30T00:22:58.080Z,65.32
2022-07-30T00:25:26.892Z,65.37
2022-07-30T00:27:55.238Z,65.58
2022-07-30T00:30:23.903Z,65.57
2022-07-30T00:32:53.705Z,65.60
2022-07-30T00:35:22.103Z,65.68
2022-07-30T00:37:50.506Z,65.74
2022-07-30T00:40:19.443Z,65.64
2022-07-30T00:42:49.013Z,65.89
2022-07-30T00:45:19.650Z,66.01
2022-07-30T00:47:48.134Z,66.02
2022-07-30T00:50:18.396Z,66.17
2022-07-30T00:52:47.214Z,66.30
2022-07-30T00:55:16.843Z,66.60
2022-07-30T00:57:46.135Z,66.49
2022-07-30T01:00:17.693Z,66.45
2022-07-30T01:02:46.153Z,66.65
2022-07-30T01:05:15.166Z,66.50
2022-07-30T01:07:45.209Z,66.67
2022-07-30T01:10:15.415Z,66.56
2022-07-30T01:12:45.163Z,66.58
2022-07-30T01:15:14.324Z,66.83
2022-07-30T01:17:42.689Z,66.85
2022-07-30T01:20:17.499Z,66.96
2022-07-30T01:23:00.602Z,66.82
2022-07-30T01:25:54.486Z,66.87
2022-07-30T01:28:29.988Z,66.73
2022-07-30T01:31:00.119Z,67.00
2022-07-30T01:33:31.908Z,66.99
2022-07-30T01:36:02.424Z,67.02
2022-07-30T01:38:34.743Z,66.56
2022-07-30T01:41:06.582Z,67.12
2022-07-30T01:43:36.853Z,66.66
2022-07-30T01:46:06.121Z,68.68
2022-07-30T01:48:40.708Z,69.18
2022-07-30T01:51:10.372Z,68.73
2022-07-30T01:53:41.945Z,68.63
2022-07-30T01:56:16.650Z,68.85
2022-07-30T01:58:47.699Z,68.86
2022-07-30T02:01:16.219Z,68.36
2022-07-30T02:03:44.935Z,68.04
2022-07-30T02:06:20.617Z,67.99
2022-07-30T02:08:56.206Z,69.40
2022-07-30T02:11:43.846Z,68.68
2022-07-30T02:14:20.324Z,69.16
2022-07-30T02:16:56.176Z,70.14
2022-07-30T02:19:32.793Z,71.22
2022-07-30T02:22:17.104Z,68.77
2022-07-30T02:24:49.176Z,70.53
2022-07-30T02:27:25.246Z,72.30
2022-07-30T02:29:55.556Z,70.47
2022-07-30T02:32:26.788Z,71.45
2022-07-30T02:35:02.742Z,70.09
2022-07-30T02:37:42.766Z,72.17
2022-07-30T02:40:16.648Z,71.34
2022-07-30T02:42:50.619Z,69.19
2022-07-30T02:45:20.385Z,68.36
2022-07-30T02:47:55.745Z,67.76
2022-07-30T02:50:26.461Z,68.29
2022-07-30T02:52:57.277Z,68.95
2022-07-30T02:55:27.675Z,68.09
2022-07-30T02:57:58.726Z,67.63
2022-07-30T03:00:28.404Z,67.26
2022-07-30T03:02:58.843Z,67.21
2022-07-30T03:05:31.137Z,67.29
2022-07-30T03:08:01.198Z,66.59
2022-07-30T03:10:31.941Z,66.26
2022-07-30T03:13:04.346Z,68.51
2022-07-30T03:15:39.506Z,68.58
2022-07-30T03:18:13.257Z,69.57
2022-07-30T03:20:42.158Z,68.29
2022-07-30T03:23:13.577Z,67.95
2022-07-30T03:25:43.816Z,67.83
2022-07-30T03:28:15.394Z,67.30
2022-07-30T03:30:45.146Z,67.48
2022-07-30T03:33:15.883Z,67.32
2022-07-30T03:35:44.790Z,67.49
2022-07-30T03:38:14.403Z,69.80
2022-07-30T03:40:44.297Z,68.55
2022-07-30T03:43:18.534Z,69.37
2022-07-30T03:46:04.129Z,68.77
2022-07-30T03:48:34.613Z,68.27
2022-07-30T03:51:05.051Z,68.58
2022-07-30T03:53:34.341Z,68.44
2022-07-30T03:56:03.286Z,68.22
2022-07-30T03:58:35.987Z,67.89
2022-07-30T04:01:04.996Z,67.96
2022-07-30T04:03:36.412Z,67.71
2022-07-30T04:06:05.053Z,67.90
2022-07-30T04:08:33.423Z,68.35
2022-07-30T04:11:01.831Z,68.23
2022-07-30T04:13:30.314Z,68.22
2022-07-30T04:16:38.796Z,68.22
2022-07-30T04:18:59.715Z,68.14
2022-07-30T04:21:29.999Z,67.88
2022-07-30T04:24:04.794Z,67.89
2022-07-30T04:26:36.924Z,68.13
2022-07-30T04:29:09.306Z,71.00
2022-07-30T04:31:44.272Z,69.16
2022-07-30T04:34:15.906Z,69.26
2022-07-30T04:36:44.900Z,69.93
2022-07-30T04:39:15.906Z,75.59
2022-07-30T04:41:49.328Z,71.67
2022-07-30T04:44:20.115Z,74.66
2022-07-30T04:46:49.918Z,71.29
2022-07-30T04:49:20.582Z,75.15
2022-07-30T04:51:50.133Z,74.20
2022-07-30T04:54:21.749Z,74.02
2022-07-30T04:56:53.491Z,74.17
2022-07-30T04:59:29.641Z,73.90
2022-07-30T05:02:00.674Z,71.89
2022-07-30T05:04:30.364Z,74.26
2022-07-30T05:07:00.416Z,74.05
2022-07-30T05:09:30.009Z,75.32
2022-07-30T05:11:59.436Z,78.73
2022-07-30T05:14:28.704Z,75.49
2022-07-30T05:16:59.172Z,76.65
2022-07-30T05:19:27.803Z,79.38
2022-07-30T05:21:56.353Z,77.84
2022-07-30T05:24:24.846Z,84.78
2022-07-30T05:26:53.401Z,82.22
2022-07-30T05:29:21.806Z,81.85
2022-07-30T05:31:51.731Z,84.56
2022-07-30T05:34:21.860Z,83.11
2022-07-30T05:36:51.129Z,88.14
2022-07-30T05:39:19.816Z,83.19
2022-07-30T05:41:48.248Z,84.95
2022-07-30T05:46:50.659Z,87.41
2022-07-30T05:49:19.305Z,83.35
2022-07-30T05:51:50.412Z,82.98
2022-07-30T05:54:18.861Z,81.32
2022-07-30T05:56:47.224Z,85.92
2022-07-30T05:59:15.545Z,78.96
2022-07-30T06:01:43.923Z,79.23
2022-07-30T06:04:12.535Z,82.28
2022-07-30T06:06:40.910Z,78.57
2022-07-30T06:09:10.664Z,76.33
2022-07-30T06:11:39.137Z,85.71
2022-07-30T06:14:07.521Z,79.31
2022-07-30T06:16:35.896Z,79.33
2022-07-30T06:19:04.587Z,82.11
2022-07-30T06:22:05.592Z,90.16
2022-07-30T06:24:22.624Z,85.61
2022-07-30T06:26:51.123Z,87.48
2022-07-30T06:29:20.507Z,83.47
2022-07-30T06:31:48.880Z,82.00
2022-07-30T06:34:17.232Z,82.86
2022-07-30T06:36:45.590Z,85.00
2022-07-30T06:39:14.069Z,83.67
2022-07-30T06:41:44.837Z,84.83
2022-07-30T06:44:13.198Z,84.90
2022-07-30T06:46:41.619Z,88.19
2022-07-30T06:49:11.492Z,84.54
2022-07-30T06:51:39.927Z,79.57
2022-07-30T06:54:08.822Z,82.02
2022-07-30T06:56:37.375Z,82.27
2022-07-30T06:59:07.076Z,82.82
2022-07-30T07:01:35.574Z,89.58
2022-07-30T07:04:04.396Z,88.52
2022-07-30T07:06:32.937Z,83.56
2022-07-30T07:09:01.706Z,83.93
2022-07-30T07:11:30.090Z,80.33
2022-07-30T07:14:04.063Z,73.63
2022-07-30T07:16:34.464Z,69.69
2022-07-30T07:19:02.818Z,63.87
2022-07-30T07:21:31.178Z,60.79
2022-07-30T07:24:00.591Z,60.97
2022-07-30T07:26:29.015Z,66.30
2022-07-30T07:28:57.359Z,59.38
2022-07-30T07:32:06.040Z,61.77
2022-07-30T07:34:17.268Z,75.98
2022-07-30T07:36:45.684Z,67.37
2022-07-30T07:39:14.910Z,64.59
2022-07-30T07:41:48.776Z,66.95
2022-07-30T07:44:17.896Z,58.24
2022-07-30T07:46:46.272Z,59.15
2022-07-30T07:49:16.165Z,58.04
2022-07-30T07:51:47.509Z,59.36
2022-07-30T07:54:22.252Z,58.20
2022-07-30T07:56:52.854Z,55.94
2022-07-30T07:59:21.740Z,55.76
2022-07-30T08:01:51.319Z,56.06
2022-07-30T08:04:21.165Z,57.32
2022-07-30T08:06:49.542Z,56.81
2022-07-30T08:09:17.940Z,56.39
2022-07-30T08:11:46.352Z,54.80
2022-07-30T08:14:14.711Z,55.89
2022-07-30T08:16:43.239Z,55.79
2022-07-30T08:19:12.207Z,59.36
2022-07-30T08:21:41.934Z,61.26
2022-07-30T08:24:10.409Z,59.58
2022-07-30T08:26:38.761Z,56.66
2022-07-30T08:29:07.133Z,56.36
2022-07-30T08:31:35.494Z,55.20
2022-07-30T08:34:03.829Z,57.32
2022-07-30T08:36:32.176Z,62.52
2022-07-30T08:39:01.960Z,57.89
2022-07-30T08:41:30.882Z,54.17
2022-07-30T08:44:02.372Z,57.06
2022-07-30T08:46:34.601Z,54.90
2022-07-30T08:49:09.131Z,53.64
2022-07-30T08:51:40.152Z,56.79
2022-07-30T08:54:09.985Z,57.84
2022-07-30T08:56:38.878Z,57.11
2022-07-30T08:59:07.352Z,57.60
2022-07-30T09:01:35.711Z,56.01
2022-07-30T09:06:33.968Z,57.46
2022-07-30T09:09:03.305Z,55.01
2022-07-30T09:11:36.174Z,56.64
2022-07-30T09:14:12.113Z,56.03
2022-07-30T09:16:41.821Z,51.29
2022-07-30T09:19:16.217Z,52.49
2022-07-30T09:21:55.928Z,52.54
2022-07-30T09:24:24.340Z,53.47
2022-07-30T09:27:00.166Z,52.28
2022-07-30T09:29:31.133Z,51.97
2022-07-30T09:32:01.795Z,52.10
2022-07-30T09:34:33.259Z,50.88
2022-07-30T09:37:04.798Z,50.92
2022-07-30T09:39:35.448Z,47.12
2022-07-30T09:42:19.570Z,46.67
2022-07-30T09:44:48.381Z,49.00
2022-07-30T09:47:33.223Z,48.52
2022-07-30T09:50:07.873Z,46.62
2022-07-30T09:52:37.111Z,46.69
2022-07-30T09:55:14.233Z,48.12
2022-07-30T09:57:58.732Z,47.13
2022-07-30T10:00:30.085Z,44.88
2022-07-30T10:03:00.509Z,46.98
2022-07-30T10:05:50.046Z,41.59
2022-07-30T10:08:21.781Z,40.23
2022-07-30T10:10:50.742Z,44.30
2022-07-30T10:13:22.065Z,45.22
2022-07-30T10:15:51.392Z,40.73
2022-07-30T10:18:19.787Z,42.45
2022-07-30T10:20:49.310Z,42.14
2022-07-30T10:23:20.284Z,41.10
2022-07-30T10:25:58.064Z,40.45
2022-07-30T10:28:31.423Z,44.27
2022-07-30T10:31:47.419Z,40.46
2022-07-30T10:33:54.371Z,45.45
2022-07-30T10:36:24.858Z,41.62
2022-07-30T10:38:55.125Z,41.49
2022-07-30T10:41:43.131Z,41.86
2022-07-30T10:44:45.009Z,40.53
2022-07-30T10:47:18.600Z,41.56
2022-07-30T10:50:11.851Z,48.54
2022-07-30T10:52:52.339Z,46.37
2022-07-30T10:55:37.534Z,44.68
2022-07-30T10:58:10.047Z,41.69
2022-07-30T11:01:00.305Z,47.20
2022-07-30T11:03:40.144Z,42.04
2022-07-30T11:06:30.472Z,41.69
2022-07-30T11:08:59.186Z,43.20
2022-07-30T11:12:16.123Z,40.10
2022-07-30T11:15:06.659Z,41.16
2022-07-30T11:18:05.905Z,38.19
2022-07-30T11:20:41.165Z,44.20
2022-07-30T11:23:40.605Z,38.17
2022-07-30T11:26:14.315Z,41.27
2022-07-30T11:28:49.500Z,43.53
2022-07-30T11:32:07.422Z,40.36
2022-07-30T11:34:30.975Z,38.82
2022-07-30T11:37:22.164Z,42.81
2022-07-30T11:40:14.174Z,40.60
2022-07-30T11:42:45.009Z,38.54
2022-07-30T11:45:30.958Z,44.45
2022-07-30T11:48:01.316Z,44.21
2022-07-30T11:50:33.761Z,43.86
2022-07-30T11:53:04.800Z,41.62
2022-07-30T11:55:36.010Z,45.42
2022-07-30T11:58:07.869Z,45.80
2022-07-30T12:00:39.803Z,45.09
2022-07-30T12:03:16.865Z,40.12
2022-07-30T12:05:51.257Z,39.76
2022-07-30T12:08:36.029Z,41.16
2022-07-30T12:11:05.065Z,39.52
2022-07-30T12:13:44.810Z,44.55
2022-07-30T12:16:17.626Z,44.36
2022-07-30T12:18:47.341Z,45.25
2022-07-30T12:21:17.668Z,39.68
2022-07-30T12:23:56.586Z,39.34
2022-07-30T12:26:27.359Z,39.68
2022-07-30T12:28:58.608Z,42.38
2022-07-30T12:31:27.617Z,38.71
2022-07-30T12:33:58.267Z,39.40
2022-07-30T12:36:33.898Z,38.69
2022-07-30T12:39:06.670Z,39.48
2022-07-30T12:41:46.311Z,38.88
2022-07-30T12:44:36.514Z,40.20
2022-07-30T12:47:06.228Z,40.56
2022-07-30T12:49:37.734Z,40.29
2022-07-30T12:52:29.313Z,40.51
2022-07-30T12:55:02.539Z,41.38
2022-07-30T12:58:01.724Z,40.32
2022-07-30T13:00:51.115Z,44.05
2022-07-30T13:03:24.700Z,41.83
2022-07-30T13:05:55.941Z,39.36
2022-07-30T13:08:54.570Z,42.53
2022-07-30T13:11:25.661Z,42.73
2022-07-30T13:13:54.706Z,40.83
2022-07-30T13:16:23.151Z,42.50
2022-07-30T13:18:51.457Z,40.47
2022-07-30T13:21:19.788Z,39.41
2022-07-30T13:23:48.131Z,39.18
2022-07-30T13:26:17.830Z,42.55
2022-07-30T13:28:47.083Z,39.75
2022-07-30T13:31:15.700Z,39.27
2022-07-30T13:33:44.592Z,39.30
2022-07-30T13:36:12.921Z,39.85
2022-07-30T13:38:41.289Z,41.98
2022-07-30T13:41:09.818Z,40.65
2022-07-30T13:43:41.532Z,40.50
2022-07-30T13:46:09.876Z,44.57
2022-07-30T13:48:38.860Z,44.60
2022-07-30T13:51:07.456Z,41.09
2022-07-30T13:53:35.824Z,43.72
2022-07-30T13:56:04.284Z,42.38
2022-07-30T13:58:36.126Z,40.45
2022-07-30T14:01:07.625Z,43.04
2022-07-30T14:03:36.512Z,40.55
2022-07-30T14:06:10.065Z,40.28
2022-07-30T14:08:39.856Z,40.13
2022-07-30T14:11:08.321Z,40.90
2022-07-30T14:13:36.782Z,39.17
2022-07-30T14:16:22.583Z,39.73
2022-07-30T14:18:55.676Z,39.32
2022-07-30T14:21:24.224Z,41.59
2022-07-30T14:23:52.582Z,39.54
2022-07-30T14:26:20.973Z,42.61
2022-07-30T14:28:49.321Z,40.08
2022-07-30T14:31:19.014Z,39.76
2022-07-30T14:33:47.384Z,43.11
2022-07-30T14:36:15.836Z,40.04
2022-07-30T14:38:44.442Z,40.31
2022-07-30T14:41:12.807Z,42.92
2022-07-30T14:43:41.164Z,39.87
2022-07-30T14:46:09.486Z,43.06
2022-07-30T14:48:39.245Z,39.14
2022-07-30T14:51:17.670Z,42.39
2022-07-30T14:53:48.120Z,40.65
2022-07-30T14:56:17.579Z,41.60
2022-07-30T14:58:46.335Z,39.04
2022-07-30T15:01:15.686Z,42.72
2022-07-30T15:03:47.007Z,40.11
2022-07-30T15:06:16.066Z,42.79
2022-07-30T15:08:46.102Z,40.53
2022-07-30T15:11:14.717Z,42.45
2022-07-30T15:13:49.677Z,41.79
2022-07-30T15:16:20.235Z,41.53
2022-07-30T15:18:50.201Z,43.37
2022-07-30T15:21:18.751Z,43.27
2022-07-30T15:23:47.176Z,40.94
2022-07-30T15:26:15.532Z,42.39
2022-07-30T15:28:43.859Z,42.60
2022-07-30T15:31:12.413Z,40.96
2022-07-30T15:33:43.216Z,42.78
2022-07-30T15:36:14.091Z,42.62
2022-07-30T15:38:43.374Z,42.38
2022-07-30T15:41:13.778Z,40.47
2022-07-30T15:43:42.380Z,40.03
2022-07-30T15:46:10.795Z,42.34
2022-07-30T15:48:39.167Z,40.76
2022-07-30T15:51:08.319Z,43.12
2022-07-30T15:53:38.070Z,41.26
2022-07-30T15:56:06.825Z,42.42
2022-07-30T15:58:35.737Z,43.61
2022-07-30T16:01:06.405Z,43.54
2022-07-30T16:03:34.736Z,43.04
2022-07-30T16:06:03.091Z,41.75
2022-07-30T16:08:31.478Z,42.53
2022-07-30T16:11:03.839Z,43.30
2022-07-30T16:13:32.308Z,41.84
2022-07-30T16:16:00.701Z,43.58
2022-07-30T16:18:29.075Z,43.47
2022-07-30T16:20:58.835Z,40.87
2022-07-30T16:23:27.161Z,42.76
2022-07-30T16:25:55.526Z,42.93
2022-07-30T16:28:25.308Z,43.02
2022-07-30T16:30:54.036Z,42.69
2022-07-30T16:33:22.420Z,42.67
2022-07-30T16:35:51.053Z,44.69
2022-07-30T16:38:20.257Z,43.50
2022-07-30T16:40:48.657Z,43.55
2022-07-30T16:43:19.694Z,44.19
2022-07-30T16:45:50.096Z,45.47
2022-07-30T16:48:18.438Z,43.55
2022-07-30T16:50:47.252Z,45.03
2022-07-30T16:53:15.645Z,43.67
2022-07-30T16:55:44.317Z,46.60
2022-07-30T16:58:13.120Z,45.04
2022-07-30T17:00:41.856Z,44.26
2022-07-30T17:03:11.875Z,46.17
2022-07-30T17:05:46.684Z,46.22
2022-07-30T17:08:15.570Z,44.04
2022-07-30T17:10:47.850Z,44.32
2022-07-30T17:13:16.708Z,46.83
2022-07-30T17:15:46.894Z,45.31
2022-07-30T17:18:17.531Z,46.45
2022-07-30T17:20:46.418Z,45.16
2022-07-30T17:23:14.999Z,44.30
2022-07-30T17:25:43.420Z,47.15
2022-07-30T17:28:11.759Z,44.04
2022-07-30T17:30:40.151Z,46.29
2022-07-30T17:33:08.575Z,47.46
2022-07-30T17:35:38.847Z,45.38
2022-07-30T17:38:07.386Z,46.63
2022-07-30T17:40:35.847Z,47.64
2022-07-30T17:43:04.827Z,46.21
2022-07-30T17:45:34.745Z,44.02
2022-07-30T17:48:03.281Z,45.66
2022-07-30T17:50:32.625Z,47.19
2022-07-30T17:53:03.728Z,46.98
2022-07-30T17:55:34.986Z,46.58
2022-07-30T17:58:03.979Z,46.27
2022-07-30T18:00:32.675Z,48.99
2022-07-30T18:03:01.045Z,44.90
2022-07-30T18:05:29.648Z,47.22
2022-07-30T18:07:58.024Z,48.01
2022-07-30T18:10:27.732Z,45.00
2022-07-30T18:12:56.278Z,44.90
2022-07-30T18:15:24.638Z,44.82
2022-07-30T18:17:53.092Z,47.15
2022-07-30T18:20:21.503Z,46.86
2022-07-30T18:22:51.732Z,43.47
2022-07-30T18:25:20.473Z,46.61
2022-07-30T18:27:53.133Z,46.34
2022-07-30T18:30:21.684Z,46.28
2022-07-30T18:32:50.505Z,45.90
2022-07-30T18:35:19.169Z,46.09
2022-07-30T18:37:48.316Z,46.87
2022-07-30T18:40:23.747Z,44.56
2022-07-30T18:42:53.886Z,46.55
2022-07-30T18:45:22.846Z,43.70
2022-07-30T18:47:51.217Z,46.04
2022-07-30T18:50:20.215Z,43.07
2022-07-30T18:52:48.932Z,46.10
2022-07-30T18:55:18.034Z,45.20
2022-07-30T18:57:46.359Z,43.57
2022-07-30T19:00:32.757Z,47.25
2022-07-30T19:03:04.581Z,46.79
2022-07-30T19:05:33.074Z,45.79
2022-07-30T19:08:01.410Z,45.28
2022-07-30T19:10:29.902Z,44.62
2022-07-30T19:12:58.550Z,44.88
2022-07-30T19:15:29.505Z,45.23
2022-07-30T19:17:58.742Z,45.05
2022-07-30T19:20:27.577Z,44.82
2022-07-30T19:23:03.101Z,44.77
2022-07-30T19:25:33.570Z,44.81
2022-07-30T19:28:02.447Z,44.88
2022-07-30T19:30:33.620Z,45.02
2022-07-30T19:33:05.969Z,44.63
2022-07-30T19:35:34.676Z,46.01
2022-07-30T19:38:03.220Z,45.89
2022-07-30T19:40:32.079Z,45.59
2022-07-30T19:43:06.588Z,45.80
2022-07-30T19:45:47.270Z,45.67
2022-07-30T19:48:29.045Z,45.73
2022-07-30T19:51:01.551Z,45.96
2022-07-30T19:53:31.623Z,45.91
2022-07-30T19:56:08.391Z,46.03
2022-07-30T19:58:40.321Z,46.19
2022-07-30T20:01:12.290Z,46.17
2022-07-30T20:03:40.997Z,46.34
2022-07-30T20:06:10.283Z,46.70
2022-07-30T20:08:44.889Z,46.58
2022-07-30T20:11:34.834Z,46.55
2022-07-30T20:14:03.193Z,46.55
2022-07-30T20:16:33.114Z,46.73
2022-07-30T20:19:03.326Z,46.90
2022-07-30T20:22:07.267Z,46.97
2022-07-30T20:24:22.019Z,46.44
2022-07-30T20:26:50.491Z,49.18
2022-07-30T20:29:20.624Z,49.61
2022-07-30T20:31:50.690Z,49.49
2022-07-30T20:34:23.427Z,50.00
2022-07-30T20:36:52.661Z,49.39
2022-07-30T20:39:23.613Z,49.64
2022-07-30T20:42:07.694Z,48.74
2022-07-30T20:44:37.975Z,48.15
2022-07-30T20:47:08.809Z,48.14
2022-07-30T20:49:38.341Z,47.96
2022-07-30T20:52:10.174Z,48.22
2022-07-30T20:54:45.139Z,48.38
2022-07-30T20:57:15.484Z,50.39
2022-07-30T20:59:44.416Z,50.17
2022-07-30T21:02:15.072Z,49.91
2022-07-30T21:04:46.456Z,49.79
2022-07-30T21:07:14.963Z,50.23
2022-07-30T21:09:51.998Z,50.92
2022-07-30T21:12:32.503Z,50.17
2022-07-30T21:15:01.666Z,50.01
2022-07-30T21:17:31.436Z,50.10
2022-07-30T21:20:01.172Z,50.17
2022-07-30T21:22:29.586Z,50.38
2022-07-30T21:24:57.949Z,50.33
2022-07-30T21:27:29.884Z,50.42
2022-07-30T21:29:58.766Z,50.48
2022-07-30T21:32:28.305Z,50.57
2022-07-30T21:34:58.012Z,50.61
2022-07-30T21:37:36.598Z,50.86
2022-07-30T21:40:19.116Z,50.95
2022-07-30T21:42:53.197Z,51.19
2022-07-30T21:45:21.600Z,51.39
2022-07-30T21:47:51.310Z,51.19
2022-07-30T21:50:21.651Z,51.15
2022-07-30T21:52:50.123Z,51.11
2022-07-30T21:55:19.929Z,52.13
2022-07-30T21:57:49.837Z,51.88
2022-07-30T22:00:32.260Z,51.92
2022-07-30T22:03:00.610Z,51.93
2022-07-30T22:05:38.595Z,53.47
2022-07-30T22:08:20.068Z,52.75
2022-07-30T22:10:49.732Z,53.13
2022-07-30T22:13:22.402Z,53.43
2022-07-30T22:15:51.135Z,53.25
2022-07-30T22:18:21.715Z,53.65
2022-07-30T22:20:54.585Z,53.02
2022-07-30T22:23:23.668Z,53.43
2022-07-30T22:25:53.892Z,54.34
2022-07-30T22:28:28.777Z,53.23
2022-07-30T22:30:57.228Z,53.13
2022-07-30T22:33:25.675Z,53.53
2022-07-30T22:35:56.598Z,53.27
2022-07-30T22:38:24.897Z,53.07
2022-07-30T22:40:53.243Z,53.79
2022-07-30T22:43:21.688Z,52.24
2022-07-30T22:45:50.265Z,53.47
2022-07-30T22:48:20.560Z,52.80
2022-07-30T22:50:56.984Z,53.13
2022-07-30T22:54:10.841Z,53.20
2022-07-30T22:56:18.537Z,53.14
2022-07-30T22:58:48.674Z,54.09
2022-07-30T23:01:17.935Z,53.49
2022-07-30T23:03:46.268Z,54.52
2022-07-30T23:06:17.920Z,54.37
2022-07-30T23:08:49.208Z,54.48
2022-07-30T23:11:17.817Z,54.48
2022-07-30T23:13:46.148Z,53.74
2022-07-30T23:16:14.524Z,54.09
2022-07-30T23:18:42.861Z,53.66
2022-07-30T23:21:11.290Z,53.94
2022-07-30T23:23:40.988Z,53.90
2022-07-30T23:26:09.537Z,54.33
2022-07-30T23:28:38.640Z,53.84
2022-07-30T23:31:07.145Z,54.20
2022-07-30T23:33:35.481Z,53.72
2022-07-30T23:36:06.839Z,54.02
2022-07-30T23:38:35.595Z,54.25
2022-07-30T23:41:06.825Z,54.15
2022-07-30T23:43:35.742Z,54.23
2022-07-30T23:46:05.132Z,55.06
2022-07-30T23:48:38.140Z,55.00
2022-07-30T23:51:06.690Z,55.37
2022-07-30T23:53:35.043Z,55.80
2022-07-30T23:56:05.374Z,56.12
2022-07-30T23:58:34.323Z,55.87
